createdAt,value
2022-12-17T00:00:38.219Z,23.05
2022-12-17T00:03:44.130Z,25.98
2022-12-17T00:06:30.120Z,24.38
2022-12-17T00:09:17.552Z,22.75
2022-12-17T00:12:02.980Z,26.52
2022-12-17T00:14:48.560Z,23.05
2022-12-17T00:17:34.208Z,27.95
2022-12-17T00:20:19.707Z,19.83
2022-12-17T00:23:05.545Z,20.48
2022-12-17T00:25:51.313Z,22.38
2022-12-17T00:28:37.480Z,20.00
2022-12-17T00:31:23.735Z,20.85
2022-12-17T00:34:10.533Z,23.27
2022-12-17T00:36:57.371Z,15.35
2022-12-17T00:39:42.929Z,20.25
2022-12-17T00:42:28.460Z,21.55
2022-12-17T00:45:14.101Z,21.63
2022-12-17T00:47:59.444Z,22.50
2022-12-17T00:50:44.938Z,21.77
2022-12-17T00:53:30.643Z,16.23
2022-12-17T00:56:16.127Z,27.48
2022-12-17T00:59:01.835Z,24.98
2022-12-17T01:01:47.396Z,31.40
2022-12-17T01:04:33.029Z,27.23
2022-12-17T01:07:18.615Z,24.98
2022-12-17T01:10:04.108Z,23.83
2022-12-17T01:12:49.543Z,21.50
2022-12-17T01:15:35.069Z,24.60
2022-12-17T01:18:20.863Z,19.67
2022-12-17T01:21:06.423Z,25.98
2022-12-17T01:23:52.179Z,31.40
2022-12-17T01:26:37.926Z,27.70
2022-12-17T01:29:23.701Z,21.50
2022-12-17T01:32:09.560Z,25.85
2022-12-17T01:34:56.067Z,22.58
2022-12-17T01:37:41.661Z,24.38
2022-12-17T01:40:28.670Z,22.23
2022-12-17T01:43:14.430Z,20.65
2022-12-17T01:46:05.465Z,18.70
2022-12-17T01:49:00.995Z,17.45
2022-12-17T01:51:47.975Z,18.48
2022-12-17T01:54:35.055Z,15.38
2022-12-17T01:57:23.075Z,17.42
2022-12-17T02:00:17.374Z,17.25
2022-12-17T02:03:06.079Z,14.93
2022-12-17T02:06:16.115Z,14.18
2022-12-17T02:09:10.812Z,13.73
2022-12-17T02:12:26.868Z,18.02
2022-12-17T02:15:22.470Z,18.42
2022-12-17T02:18:30.350Z,18.45
2022-12-17T02:21:17.510Z,25.83
2022-12-17T02:24:51.395Z,14.60
2022-12-17T02:27:40.174Z,13.98
2022-12-17T02:30:28.014Z,12.00
2022-12-17T02:33:14.555Z,6.25
2022-12-17T02:36:18.152Z,11.45
2022-12-17T02:39:03.797Z,9.40
2022-12-17T02:42:00.121Z,13.50
2022-12-17T02:44:47.707Z,8.43
2022-12-17T02:47:34.234Z,12.90
2022-12-17T02:50:20.298Z,7.78
2022-12-17T02:53:07.823Z,6.43
2022-12-17T02:55:54.858Z,7.65
2022-12-17T02:58:41.039Z,8.30
2022-12-17T03:01:27.202Z,8.68
2022-12-17T03:04:13.805Z,10.20
2022-12-17T03:06:59.494Z,8.48
2022-12-17T03:09:45.187Z,14.45
2022-12-17T03:12:31.278Z,8.27
2022-12-17T03:15:16.862Z,13.18
2022-12-17T03:18:02.679Z,13.40
2022-12-17T03:20:49.508Z,9.50
2022-12-17T03:23:35.436Z,10.07
2022-12-17T03:26:22.350Z,8.93
2022-12-17T03:29:08.113Z,8.35
2022-12-17T03:31:54.009Z,11.40
2022-12-17T03:34:39.561Z,10.95
2022-12-17T03:37:25.649Z,11.00
2022-12-17T03:40:11.121Z,10.93
2022-12-17T03:42:56.691Z,9.82
2022-12-17T03:45:42.838Z,7.32
2022-12-17T03:48:31.686Z,10.38
2022-12-17T03:51:38.472Z,8.85
2022-12-17T03:54:24.006Z,13.18
2022-12-17T03:57:15.788Z,14.85
2022-12-17T04:02:58.295Z,11.27
2022-12-17T04:05:44.399Z,10.25
2022-12-17T04:08:29.896Z,12.00
2022-12-17T04:11:15.454Z,14.43
2022-12-17T04:14:01.086Z,11.15
2022-12-17T04:16:46.816Z,11.30
2022-12-17T04:19:32.307Z,11.23
2022-12-17T04:22:17.737Z,10.35
2022-12-17T04:25:03.584Z,11.48
2022-12-17T04:27:49.267Z,11.80
2022-12-17T04:30:35.305Z,14.32
2022-12-17T04:33:21.020Z,17.30
2022-12-17T04:36:06.517Z,12.98
2022-12-17T04:38:52.109Z,17.55
2022-12-17T04:41:37.783Z,14.70
2022-12-17T04:44:23.208Z,11.07
2022-12-17T04:47:08.999Z,13.20
2022-12-17T04:49:55.597Z,19.58
2022-12-17T04:52:41.048Z,19.85
2022-12-17T04:55:26.645Z,20.30
2022-12-17T04:58:12.450Z,18.60
2022-12-17T05:00:57.978Z,14.00
2022-12-17T05:03:43.572Z,15.25
2022-12-17T05:06:29.362Z,13.30
2022-12-17T05:09:15.190Z,14.70
2022-12-17T05:12:00.637Z,11.50
2022-12-17T05:14:46.278Z,13.50
2022-12-17T05:17:32.122Z,13.27
2022-12-17T05:20:17.828Z,11.25
2022-12-17T05:23:03.402Z,12.20
2022-12-17T05:25:48.765Z,12.77
2022-12-17T05:28:34.920Z,10.27
2022-12-17T05:31:20.273Z,12.80
2022-12-17T05:34:05.853Z,9.52
2022-12-17T05:36:52.155Z,9.25
2022-12-17T05:39:37.674Z,9.18
2022-12-17T05:42:23.541Z,13.63
2022-12-17T05:45:09.091Z,11.48
2022-12-17T05:48:02.194Z,10.93
2022-12-17T05:50:47.804Z,11.55
2022-12-17T05:53:33.606Z,12.10
2022-12-17T05:56:19.251Z,13.27
2022-12-17T05:59:04.751Z,12.70
2022-12-17T06:01:50.422Z,13.20
2022-12-17T06:04:36.120Z,15.63
2022-12-17T06:07:21.717Z,13.82
2022-12-17T06:10:07.243Z,14.43
2022-12-17T06:12:52.714Z,12.88
2022-12-17T06:15:38.149Z,14.25
2022-12-17T06:18:23.724Z,18.75
2022-12-17T06:21:11.262Z,13.45
2022-12-17T06:23:56.877Z,15.13
2022-12-17T06:26:42.333Z,9.35
2022-12-17T06:29:28.102Z,14.48
2022-12-17T06:32:13.639Z,13.48
2022-12-17T06:34:59.171Z,12.82
2022-12-17T06:37:44.853Z,13.55
2022-12-17T06:40:30.807Z,16.30
2022-12-17T06:43:19.481Z,13.60
2022-12-17T06:46:05.376Z,13.18
2022-12-17T06:48:50.944Z,12.50
2022-12-17T06:51:36.570Z,19.85
2022-12-17T06:54:22.033Z,14.98
2022-12-17T06:57:07.596Z,14.73
2022-12-17T06:59:53.396Z,13.95
2022-12-17T07:02:39.235Z,16.85
2022-12-17T07:05:26.708Z,14.65
2022-12-17T07:08:17.505Z,14.32
2022-12-17T07:11:03.854Z,15.65
2022-12-17T07:13:49.516Z,13.85
2022-12-17T07:16:35.264Z,18.60
2022-12-17T07:19:26.886Z,16.77
2022-12-17T07:22:13.364Z,17.30
2022-12-17T07:24:59.001Z,14.82
2022-12-17T07:27:44.725Z,16.35
2022-12-17T07:30:30.895Z,17.15
2022-12-17T07:33:21.032Z,19.10
2022-12-17T07:36:06.618Z,12.93
2022-12-17T07:38:52.573Z,15.95
2022-12-17T07:41:38.110Z,10.23
2022-12-17T07:44:24.225Z,15.55
2022-12-17T07:47:10.200Z,9.82
2022-12-17T07:49:55.829Z,14.88
2022-12-17T07:52:41.316Z,12.57
2022-12-17T07:55:32.108Z,10.80
2022-12-17T07:58:25.696Z,14.48
2022-12-17T08:01:11.835Z,7.55
2022-12-17T08:03:57.400Z,12.73
2022-12-17T08:06:43.040Z,14.30
2022-12-17T08:09:28.633Z,11.25
2022-12-17T08:12:14.437Z,10.77
2022-12-17T08:15:00.468Z,10.93
2022-12-17T08:17:46.599Z,7.47
2022-12-17T08:20:32.283Z,10.32
2022-12-17T08:23:22.426Z,7.10
2022-12-17T08:26:08.589Z,8.00
2022-12-17T08:28:54.398Z,5.25
2022-12-17T08:31:42.364Z,5.72
2022-12-17T08:34:28.096Z,6.63
2022-12-17T08:37:13.683Z,5.55
2022-12-17T08:39:59.309Z,3.65
2022-12-17T08:42:45.131Z,4.43
2022-12-17T08:45:30.557Z,4.65
2022-12-17T08:48:26.370Z,6.20
2022-12-17T08:51:12.573Z,13.00
2022-12-17T08:53:58.434Z,3.53
2022-12-17T08:56:44.432Z,6.05
2022-12-17T08:59:30.089Z,6.50
2022-12-17T09:02:15.698Z,5.65
2022-12-17T09:05:01.472Z,3.17
2022-12-17T09:07:47.215Z,3.00
2022-12-17T09:10:33.223Z,4.70
2022-12-17T09:13:23.065Z,6.40
2022-12-17T09:16:15.285Z,8.50
2022-12-17T09:21:48.524Z,6.25
2022-12-17T09:24:34.755Z,6.20
2022-12-17T09:27:20.797Z,4.25
2022-12-17T09:30:06.496Z,6.13
2022-12-17T09:32:52.497Z,7.40
2022-12-17T09:35:38.343Z,7.25
2022-12-17T09:38:23.754Z,8.45
2022-12-17T09:41:10.558Z,7.72
2022-12-17T09:44:26.607Z,9.60
2022-12-17T09:47:39.073Z,6.00
2022-12-17T09:50:31.717Z,5.25
2022-12-17T09:53:20.845Z,7.63
2022-12-17T09:56:09.796Z,6.63
2022-12-17T09:58:57.980Z,11.38
2022-12-17T10:01:51.086Z,6.30
2022-12-17T10:04:59.283Z,7.45
2022-12-17T10:07:50.791Z,6.85
2022-12-17T10:10:41.623Z,8.03
2022-12-17T10:13:33.387Z,9.45
2022-12-17T10:16:20.009Z,6.20
2022-12-17T10:19:06.822Z,6.05
2022-12-17T10:21:56.894Z,8.95
2022-12-17T10:24:42.946Z,11.43
2022-12-17T10:27:29.500Z,7.55
2022-12-17T10:30:15.274Z,7.00
2022-12-17T10:33:01.278Z,10.57
2022-12-17T10:35:55.996Z,8.05
2022-12-17T10:38:45.431Z,5.38
2022-12-17T10:41:48.706Z,8.40
2022-12-17T10:44:41.272Z,8.48
2022-12-17T10:48:01.774Z,6.00
2022-12-17T10:50:50.658Z,7.63
2022-12-17T10:53:39.925Z,4.70
2022-12-17T10:56:25.961Z,5.72
2022-12-17T10:59:12.677Z,6.03
2022-12-17T11:02:00.463Z,5.43
2022-12-17T11:04:55.640Z,3.45
2022-12-17T11:07:55.841Z,6.40
2022-12-17T11:10:50.089Z,4.03
2022-12-17T11:13:46.694Z,5.30
2022-12-17T11:17:01.380Z,4.65
2022-12-17T11:20:30.186Z,5.15
2022-12-17T11:23:18.637Z,5.85
2022-12-17T11:26:24.741Z,6.60
2022-12-17T11:29:10.886Z,4.57
2022-12-17T11:32:24.831Z,7.32
2022-12-17T11:35:28.188Z,4.65
2022-12-17T11:38:22.784Z,4.30
2022-12-17T11:41:15.614Z,3.58
2022-12-17T11:44:12.703Z,6.22
2022-12-17T11:47:07.772Z,12.48
2022-12-17T11:50:13.854Z,6.88
2022-12-17T11:53:14.344Z,4.70
2022-12-17T11:56:18.125Z,3.83
2022-12-17T11:59:12.663Z,6.10
2022-12-17T12:02:20.420Z,4.78
2022-12-17T12:05:15.196Z,6.55
2022-12-17T12:08:16.948Z,10.63
2022-12-17T12:11:15.105Z,8.40
2022-12-17T12:14:12.230Z,5.57
2022-12-17T12:17:29.605Z,8.73
2022-12-17T12:20:42.822Z,5.10
2022-12-17T12:23:48.811Z,7.80
2022-12-17T12:26:41.512Z,9.57
2022-12-17T12:29:35.858Z,5.25
2022-12-17T12:32:35.830Z,6.53
2022-12-17T12:35:23.658Z,6.28
2022-12-17T12:38:09.576Z,5.35
2022-12-17T12:41:19.504Z,6.65
2022-12-17T12:44:14.014Z,6.97
2022-12-17T12:47:24.398Z,11.10
2022-12-17T12:50:30.468Z,7.10
2022-12-17T12:53:18.210Z,4.95
2022-12-17T12:56:03.889Z,7.30
2022-12-17T12:58:52.783Z,6.63
2022-12-17T13:01:39.536Z,6.40
2022-12-17T13:05:00.177Z,7.63
2022-12-17T13:07:29.744Z,6.78
2022-12-17T13:09:58.723Z,7.03
2022-12-17T13:12:25.912Z,7.35
2022-12-17T13:14:59.028Z,5.93
2022-12-17T13:17:58.425Z,7.28
2022-12-17T13:20:34.388Z,8.82
2022-12-17T13:23:09.202Z,10.30
2022-12-17T13:25:37.143Z,10.82
2022-12-17T13:28:05.446Z,11.93
2022-12-17T13:30:39.118Z,7.57
2022-12-17T13:33:41.741Z,9.27
2022-12-17T13:36:17.498Z,10.68
2022-12-17T13:39:00.208Z,6.90
2022-12-17T13:41:31.023Z,6.75
2022-12-17T13:44:02.407Z,6.68
2022-12-17T13:46:35.009Z,9.90
2022-12-17T13:49:06.133Z,6.70
2022-12-17T13:51:35.867Z,10.05
2022-12-17T13:54:04.834Z,7.93
2022-12-17T13:56:37.481Z,9.23
2022-12-17T13:59:09.603Z,7.22
2022-12-17T14:01:48.174Z,7.03
2022-12-17T14:04:30.109Z,6.53
2022-12-17T14:07:02.934Z,14.23
2022-12-17T14:09:37.477Z,6.10
2022-12-17T14:12:22.161Z,6.35
2022-12-17T14:14:56.112Z,8.38
2022-12-17T14:17:38.275Z,7.35
2022-12-17T14:20:11.723Z,7.55
2022-12-17T14:22:51.484Z,7.15
2022-12-17T14:25:19.089Z,7.95
2022-12-17T14:27:57.070Z,8.52
2022-12-17T14:31:24.273Z,11.20
2022-12-17T14:33:38.219Z,12.27
2022-12-17T14:36:16.798Z,6.75
2022-12-17T14:39:01.969Z,10.93
2022-12-17T14:41:55.739Z,12.60
2022-12-17T14:44:31.878Z,9.65
2022-12-17T14:47:27.440Z,11.60
2022-12-17T14:50:09.738Z,10.73
2022-12-17T14:53:26.240Z,9.88
2022-12-17T14:55:58.276Z,18.95
2022-12-17T14:58:30.208Z,10.27
2022-12-17T15:01:11.085Z,10.65
2022-12-17T15:03:49.204Z,11.43
2022-12-17T15:06:20.885Z,8.45
2022-12-17T15:08:50.743Z,8.77
2022-12-17T15:11:22.244Z,10.15
2022-12-17T15:13:54.547Z,7.50
2022-12-17T15:16:23.823Z,8.63
2022-12-17T15:19:03.908Z,11.70
2022-12-17T15:21:31.838Z,9.02
2022-12-17T15:23:59.234Z,9.65
2022-12-17T15:26:26.563Z,8.93
2022-12-17T15:28:54.905Z,10.65
2022-12-17T15:31:26.009Z,10.27
2022-12-17T15:33:57.442Z,10.07
2022-12-17T15:36:24.701Z,10.82
2022-12-17T15:38:52.677Z,10.45
2022-12-17T15:41:41.359Z,7.40
2022-12-17T15:44:09.195Z,10.38
2022-12-17T15:46:36.471Z,12.13
2022-12-17T15:49:03.952Z,7.40
2022-12-17T15:51:32.441Z,8.77
2022-12-17T15:53:59.817Z,10.43
2022-12-17T15:56:28.615Z,9.77
2022-12-17T15:58:59.350Z,5.88
2022-12-17T16:01:26.847Z,10.52
2022-12-17T16:03:54.453Z,8.50
2022-12-17T16:06:21.732Z,10.40
2022-12-17T16:08:51.901Z,8.13
2022-12-17T16:11:19.112Z,8.07
2022-12-17T16:13:46.182Z,7.88
2022-12-17T16:16:13.529Z,8.38
2022-12-17T16:18:41.078Z,7.72
2022-12-17T16:21:09.133Z,10.82
2022-12-17T16:23:36.718Z,10.50
2022-12-17T16:26:09.799Z,8.00
2022-12-17T16:31:15.822Z,8.00
2022-12-17T16:33:44.918Z,10.00
2022-12-17T16:36:14.143Z,11.55
2022-12-17T16:38:47.100Z,9.48
2022-12-17T16:41:17.470Z,12.43
2022-12-17T16:43:50.802Z,10.07
2022-12-17T16:46:35.802Z,9.88
2022-12-17T16:49:06.953Z,10.13
2022-12-17T16:51:34.402Z,6.13
2022-12-17T16:54:05.836Z,10.38
2022-12-17T16:56:39.433Z,10.95
2022-12-17T16:59:08.422Z,10.38
2022-12-17T17:01:36.644Z,8.35
2022-12-17T17:04:05.295Z,9.30
2022-12-17T17:06:34.112Z,8.10
2022-12-17T17:09:04.295Z,8.40
2022-12-17T17:11:31.602Z,10.85
2022-12-17T17:13:58.884Z,11.43
2022-12-17T17:16:26.903Z,9.48
2022-12-17T17:18:54.231Z,19.73
2022-12-17T17:21:25.970Z,25.50
2022-12-17T17:24:01.678Z,23.67
2022-12-17T17:26:30.884Z,18.85
2022-12-17T17:28:58.518Z,17.77
2022-12-17T17:31:46.483Z,19.67
2022-12-17T17:34:15.008Z,22.88
2022-12-17T17:36:42.886Z,18.15
2022-12-17T17:39:10.244Z,13.45
2022-12-17T17:41:37.711Z,18.30
2022-12-17T17:44:07.684Z,13.60
2022-12-17T17:46:35.691Z,16.27
2022-12-17T17:49:04.555Z,14.85
2022-12-17T17:52:08.006Z,16.35
2022-12-17T17:54:21.758Z,16.55
2022-12-17T17:56:48.956Z,10.88
2022-12-17T17:59:21.416Z,16.25
2022-12-17T18:01:50.635Z,14.43
2022-12-17T18:04:20.873Z,15.63
2022-12-17T18:07:23.038Z,14.05
2022-12-17T18:09:36.073Z,18.35
2022-12-17T18:12:23.304Z,12.95
2022-12-17T18:15:14.388Z,11.65
2022-12-17T18:17:37.598Z,13.57
2022-12-17T18:20:05.266Z,14.15
2022-12-17T18:22:32.367Z,14.40
2022-12-17T18:24:59.473Z,12.40
2022-12-17T18:27:26.636Z,13.02
2022-12-17T18:29:53.750Z,11.82
2022-12-17T18:32:20.942Z,13.05
2022-12-17T18:34:48.155Z,18.38
2022-12-17T18:37:15.565Z,12.63
2022-12-17T18:39:42.795Z,10.40
2022-12-17T18:42:28.759Z,11.45
2022-12-17T18:44:55.939Z,9.45
2022-12-17T18:47:23.373Z,12.38
2022-12-17T18:49:50.690Z,12.25
2022-12-17T18:52:17.858Z,14.05
2022-12-17T18:54:45.441Z,12.73
2022-12-17T18:57:13.214Z,13.35
2022-12-17T18:59:41.287Z,12.57
2022-12-17T19:02:15.732Z,13.55
2022-12-17T19:04:43.035Z,15.93
2022-12-17T19:07:10.600Z,16.45
2022-12-17T19:09:40.475Z,15.63
2022-12-17T19:12:09.656Z,15.32
2022-12-17T19:14:37.264Z,13.30
2022-12-17T19:17:06.120Z,14.18
2022-12-17T19:19:33.701Z,14.20
2022-12-17T19:22:01.085Z,17.33
2022-12-17T19:24:28.500Z,15.00
2022-12-17T19:26:55.927Z,11.93
2022-12-17T19:29:23.083Z,10.80
2022-12-17T19:31:50.660Z,14.77
2022-12-17T19:34:19.520Z,12.68
2022-12-17T19:36:47.066Z,18.90
2022-12-17T19:39:17.089Z,11.48
2022-12-17T19:41:44.561Z,11.70
2022-12-17T19:44:14.651Z,13.73
2022-12-17T19:46:43.062Z,10.88
2022-12-17T19:49:15.720Z,11.25
2022-12-17T19:51:44.351Z,13.25
2022-12-17T19:54:13.835Z,14.48
2022-12-17T19:56:42.164Z,16.27
2022-12-17T19:59:10.681Z,14.02
2022-12-17T20:01:43.338Z,13.15
2022-12-17T20:04:13.415Z,13.52
2022-12-17T20:06:42.510Z,13.60
2022-12-17T20:09:09.697Z,13.38
2022-12-17T20:11:37.517Z,20.77
2022-12-17T20:14:20.966Z,14.48
2022-12-17T20:16:59.051Z,17.23
2022-12-17T20:19:31.480Z,24.17
2022-12-17T20:22:00.169Z,31.02
2022-12-17T20:24:31.550Z,34.97
2022-12-17T20:29:27.527Z,31.15
2022-12-17T20:31:55.512Z,27.98
2022-12-17T20:34:23.707Z,29.35
2022-12-17T20:36:52.509Z,22.38
2022-12-17T20:39:26.246Z,22.98
2022-12-17T20:41:54.595Z,28.63
2022-12-17T20:44:21.795Z,35.20
2022-12-17T20:46:49.067Z,29.83
2022-12-17T20:49:16.229Z,47.08
2022-12-17T20:51:43.748Z,39.13
2022-12-17T20:54:11.508Z,29.58
2022-12-17T20:56:39.922Z,23.67
2022-12-17T20:59:11.480Z,32.47
2022-12-17T21:01:38.852Z,31.33
2022-12-17T21:04:07.573Z,28.83
2022-12-17T21:06:40.419Z,33.72
2022-12-17T21:09:08.544Z,32.10
2022-12-17T21:11:37.658Z,37.40
2022-12-17T21:14:07.523Z,35.05
2022-12-17T21:16:35.814Z,37.53
2022-12-17T21:19:04.410Z,32.72
2022-12-17T21:21:35.113Z,37.92
2022-12-17T21:24:02.394Z,34.45
2022-12-17T21:26:31.796Z,42.70
2022-12-17T21:28:59.900Z,38.80
2022-12-17T21:31:29.844Z,35.22
2022-12-17T21:33:59.867Z,40.47
2022-12-17T21:36:29.184Z,31.60
2022-12-17T21:38:56.453Z,34.30
2022-12-17T21:41:29.322Z,36.78
2022-12-17T21:43:59.270Z,33.08
2022-12-17T21:46:27.587Z,32.22
2022-12-17T21:48:56.689Z,30.10
2022-12-17T21:51:24.798Z,29.77
2022-12-17T21:53:58.023Z,28.42
2022-12-17T21:56:25.855Z,34.55
2022-12-17T21:59:00.968Z,29.70
2022-12-17T22:01:33.663Z,37.08
2022-12-17T22:04:03.730Z,33.85
2022-12-17T22:06:35.973Z,34.20
2022-12-17T22:09:20.857Z,36.08
2022-12-17T22:12:21.117Z,35.83
2022-12-17T22:14:48.476Z,36.15
2022-12-17T22:17:16.281Z,33.28
2022-12-17T22:19:43.516Z,29.90
2022-12-17T22:22:10.840Z,25.30
2022-12-17T22:24:38.014Z,34.75
2022-12-17T22:27:09.412Z,33.63
2022-12-17T22:29:55.699Z,34.45
2022-12-17T22:32:41.305Z,36.90
2022-12-17T22:36:06.438Z,28.75
2022-12-17T22:39:59.384Z,34.88
2022-12-17T22:44:30.801Z,30.67
2022-12-17T22:44:38.491Z,30.13
2022-12-17T22:46:18.513Z,37.22
2022-12-17T22:48:45.824Z,34.25
2022-12-17T22:51:20.344Z,35.20
2022-12-17T22:54:04.998Z,30.35
2022-12-17T22:56:50.840Z,37.65
2022-12-17T22:59:20.862Z,36.15
2022-12-17T23:01:48.104Z,35.22
2022-12-17T23:04:16.936Z,31.20
2022-12-17T23:06:45.813Z,34.28
2022-12-17T23:09:15.957Z,40.08
2022-12-17T23:11:43.330Z,34.55
2022-12-17T23:14:10.836Z,32.38
2022-12-17T23:16:39.261Z,35.40
2022-12-17T23:19:07.540Z,33.65
2022-12-17T23:21:35.359Z,29.23
2022-12-17T23:24:02.991Z,40.47
2022-12-17T23:26:35.922Z,33.75
2022-12-17T23:29:07.482Z,34.60
2022-12-17T23:31:37.552Z,37.03
2022-12-17T23:34:05.537Z,34.47
2022-12-17T23:36:33.080Z,36.65
2022-12-17T23:39:00.573Z,32.00
2022-12-17T23:41:29.834Z,38.95
2022-12-17T23:43:57.754Z,32.45
2022-12-17T23:46:27.451Z,35.13
2022-12-17T23:48:55.058Z,36.47
2022-12-17T23:51:23.809Z,33.00
2022-12-17T23:53:51.621Z,39.47
2022-12-17T23:56:24.584Z,28.10
2022-12-17T23:58:57.658Z,34.60
